Flight Track Log - Related Links

Times and Time Zones

All times are in EST time to prevent confusion due to time zone crossing. See the SKW5564 flight status page for this flight to view local times or setup timezone preferences in your user account.

Time Position Orientation Groundspeed Altitude Reporting Facility
EST Latitude Longitude Course Direction KTS MPH feet Rate Location/Type
Sun 10:52:00 AM 33.8581 -84.9563 297° West  Level Estimated
Sun 10:53:00 AM 33.9021 -85.0623 297° West  Level Estimated
Sun 10:54:00 AM 33.9461 -85.1685 297° West  Level Estimated
Sun 10:55:00 AM 33.9899 -85.2747 296° West  Level Estimated
Sun 10:56:00 AM 34.0336 -85.3811 296° West  Level Estimated
Sun 10:57:00 AM 34.0773 -85.4875 296° West  Level Estimated
Sun 10:58:00 AM 34.1208 -85.5941 296° West  Level Estimated
Sun 10:59:00 AM 34.1643 -85.7008 296° West  Level Estimated
Sun 11:00:00 AM 34.2077 -85.8076 296° West  Level Estimated
Sun 11:01:00 AM 34.2510 -85.9145 296° West  Level Estimated
Sun 11:02:00 AM 34.2942 -86.0215 296° West  Level Estimated
Sun 11:03:00 AM 34.3372 -86.1286 296° West  Level Estimated
Sun 11:04:00 AM 34.3802 -86.2358 296° West  Level Estimated
Sun 11:05:00 AM 34.4231 -86.3432 296° West  Level Estimated
Sun 11:06:00 AM 34.4660 -86.4506 296° West  Level Estimated
Sun 11:07:00 AM 34.5087 -86.5582 296° West  Level Estimated
Sun 11:08:00 AM 34.5513 -86.6658 296° West  Level Estimated
Sun 11:09:00 AM 34.5938 -86.7736 296° West  Level Estimated
Sun 11:10:00 AM 34.6363 -86.8815 296° West  Level Estimated
Sun 11:11:00 AM 34.6786 -86.9895 296° West  Level Estimated
Sun 11:12:00 AM 34.7209 -87.0976 295° West  Level Estimated
Sun 11:13:00 AM 34.7630 -87.2058 295° West  Level Estimated
Sun 11:14:00 AM 34.8050 -87.3142 295° West  Level Estimated
Sun 11:15:00 AM 34.8470 -87.4226 295° West  Level Estimated
Sun 11:16:00 AM 34.8889 -87.5312 295° West  Level Estimated
Sun 11:17:00 AM 34.9306 -87.6398 295° West  Level Estimated
Sun 11:18:00 AM 34.9723 -87.7486 295° West  Level Estimated
Sun 11:19:00 AM 35.0139 -87.8575 295° West  Level Estimated
Sun 11:20:00 AM 35.0553 -87.9665 295° West  Level Estimated
Sun 11:21:00 AM 35.0967 -88.0756 295° West  Level Estimated
Sun 11:22:00 AM 35.1380 -88.1848 295° West  Level Estimated
Sun 11:23:00 AM 35.1792 -88.2941 295° West  Level Estimated
Sun 11:24:00 AM 35.2203 -88.4036 295° West  Level Estimated
Sun 11:25:00 AM 35.2612 -88.5131 295° West  Level Estimated
Sun 11:26:00 AM 35.3021 -88.6228 295° West  Level Estimated
Sun 11:27:00 AM 35.3429 -88.7325 295° West  Level Estimated
Sun 11:28:00 AM 35.3836 -88.8424 294° West  Level Estimated
Sun 11:29:00 AM 35.4242 -88.9524 294° West  Level Estimated
Sun 11:30:00 AM 35.4647 -89.0625 294° West  Level Estimated
Sun 11:31:00 AM 35.5051 -89.1727 294° West  Level Estimated
Sun 11:32:00 AM 35.5453 -89.2830 294° West  Level Estimated
Sun 11:33:00 AM 35.5855 -89.3935 294° West  Level Estimated
Sun 11:34:00 AM 35.6256 -89.5040 294° West  Level Estimated
Sun 11:35:00 AM 35.6656 -89.6147 294° West  Level Estimated
Sun 11:36:00 AM 35.7055 -89.7254 294° West  Level Estimated
Sun 11:37:00 AM 35.7453 -89.8363 294° West  Level Estimated
Sun 11:38:00 AM 35.7849 -89.9473 294° West  Level Estimated
Sun 11:39:00 AM 35.8245 -90.0584 294° West  Level Estimated
Sun 11:40:00 AM 35.8640 -90.1696 294° West  Level Estimated
Sun 11:41:00 AM 35.9034 -90.2809 294° West  Level Estimated
Sun 11:42:00 AM 35.9426 -90.3924 294° West  Level Estimated
Sun 11:43:00 AM 35.9818 -90.5039 293° West  Level Estimated
Sun 11:44:00 AM 36.0209 -90.6156 293° West  Level Estimated
Sun 11:45:00 AM 36.0598 -90.7273 293° West  Level Estimated
Sun 11:46:00 AM 36.0987 -90.8392 293° West  Level Estimated
Sun 11:47:00 AM 36.1374 -90.9512 293° West  Level Estimated
Sun 11:48:00 AM 36.1761 -91.0633 293° West  Level Estimated
Sun 11:49:00 AM 36.2146 -91.1755 293° West  Level Estimated
Sun 11:50:00 AM 36.2531 -91.2878 293° West  Level Estimated
Sun 11:51:00 AM 36.2914 -91.4002 293° West  Level Estimated
Sun 11:52:00 AM 36.3296 -91.5127 293° West  Level Estimated
Sun 11:53:00 AM 36.3677 -91.6254 293° West  Level Estimated
Sun 11:54:00 AM 36.4057 -91.7381 293° West  Level Estimated
Sun 11:55:00 AM 36.4436 -91.8510 293° West  Level Estimated
Sun 11:56:00 AM 36.4814 -91.9640 293° West  Level Estimated
Sun 11:57:00 AM 36.5191 -92.0771 293° West  Level Estimated
Sun 11:58:00 AM 36.5567 -92.1903 292° West  Level Estimated
Sun 11:59:00 AM 36.5942 -92.3036 292° West  Level Estimated
Sun 12:00:00 PM 36.6316 -92.4170 292° West  Level Estimated
Sun 12:01:00 PM 36.6689 -92.5305 292° West  Level Estimated
Sun 12:02:00 PM 36.7060 -92.6442 292° West  Level Estimated
Sun 12:03:00 PM 36.7431 -92.7579 292° West  Level Estimated
Sun 12:04:00 PM 36.7800 -92.8718 292° West  Level Estimated
Sun 12:05:00 PM 36.8168 -92.9858 292° West  Level Estimated
Sun 12:06:00 PM 36.8536 -93.0998 292° West  Level Estimated
Sun 12:07:00 PM 36.8902 -93.2140 292° West  Level Estimated
Sun 12:08:00 PM 36.9267 -93.3283 292° West  Level Estimated
Sun 12:09:00 PM 36.9631 -93.4427 292° West  Level Estimated
Sun 12:10:00 PM 36.9994 -93.5572 292° West  Level Estimated
Sun 12:11:00 PM 37.0356 -93.6718 292° West  Level Estimated
Sun 12:12:00 PM 37.0716 -93.7866 292° West  Level Estimated
Sun 12:13:00 PM 37.1076 -93.9014 291° West  Level Estimated
Sun 12:14:00 PM 37.1435 -94.0163 291° West  Level Estimated
Sun 12:15:00 PM 37.1792 -94.1314 291° West  Level Estimated
Sun 12:16:00 PM 37.2148 -94.2466 291° West  Level Estimated
Sun 12:17:00 PM 37.2503 -94.3618 291° West  Level Estimated
Sun 12:18:00 PM 37.2857 -94.4772 291° West  Level Estimated
Sun 12:19:00 PM 37.3210 -94.5927 291° West  Level Estimated
Sun 12:20:00 PM 37.3562 -94.7083 291° West  Level Estimated
Sun 12:21:00 PM 37.3912 -94.8240 291° West  Level Estimated
Sun 12:22:00 PM 37.4262 -94.9398 291° West  Level Estimated
Sun 12:23:00 PM 37.4610 -95.0558 291° West  Level Estimated
Sun 12:24:00 PM 37.4957 -95.1718 291° West  Level Estimated
Sun 12:25:00 PM 37.5303 -95.2879 291° West  Level Estimated
Sun 12:26:00 PM 37.5648 -95.4042 291° West  Level Estimated
Sun 12:27:00 PM 37.5992 -95.5206 290° West  Level Estimated
Sun 12:28:00 PM 37.6335 -95.6370 290° West  Level Estimated
Sun 12:29:00 PM 37.6676 -95.7536 290° West  Level Estimated
Sun 12:30:00 PM 37.7017 -95.8703 290° West  Level Estimated
Sun 12:31:00 PM 37.7356 -95.9870 290° West  Level Estimated
Sun 12:32:00 PM 37.7694 -96.1039 290° West  Level Estimated
Sun 12:33:00 PM 37.8031 -96.2209 290° West  Level Estimated
Sun 12:34:00 PM 37.8367 -96.3380 290° West  Level Estimated
Sun 12:35:00 PM 37.8702 -96.4552 290° West  Level Estimated
Sun 12:36:00 PM 37.9035 -96.5726 290° West  Level Estimated
Sun 12:37:00 PM 37.9367 -96.6900 290° West  Level Estimated
Sun 12:38:00 PM 37.9698 -96.8075 290° West  Level Estimated
Sun 12:39:00 PM 38.0028 -96.9251 290° West  Level Estimated
Sun 12:40:00 PM 38.0357 -97.0429 290° West  Level Estimated
Sun 12:41:00 PM 38.0685 -97.1607 289° West  Level Estimated
Sun 12:42:00 PM 38.1011 -97.2787 289° West  Level Estimated
Sun 12:43:00 PM 38.1336 -97.3968 289° West  Level Estimated
Sun 12:44:00 PM 38.1660 -97.5149 289° West  Level Estimated
Sun 12:45:00 PM 38.1983 -97.6332 289° West  Level Estimated
Sun 12:46:00 PM 38.2305 -97.7515 289° West  Level Estimated
Sun 12:47:00 PM 38.2625 -97.8700 289° West  Level Estimated
Sun 12:48:00 PM 38.2945 -97.9886 289° West  Level Estimated
Sun 12:49:00 PM 38.3263 -98.1073 289° West  Level Estimated
Sun 12:50:00 PM 38.3580 -98.2261 289° West  Level Estimated
Sun 12:51:00 PM 38.3895 -98.3450 289° West  Level Estimated
Sun 12:52:00 PM 38.4210 -98.4640 289° West  Level Estimated
Sun 12:53:00 PM 38.4523 -98.5831 289° West  Level Estimated
Sun 12:54:00 PM 38.4835 -98.7023 289° West  Level Estimated
Sun 12:55:00 PM 38.5146 -98.8216 288° West  Level Estimated
Sun 12:56:00 PM 38.5456 -98.9410 288° West  Level Estimated
Sun 12:57:00 PM 38.5764 -99.0605 288° West  Level Estimated
Sun 12:58:00 PM 38.6071 -99.1801 288° West  Level Estimated
Sun 12:59:00 PM 38.6377 -99.2998 288° West  Level Estimated
Sun 01:00:00 PM 38.6682 -99.4197 288° West  Level Estimated
Sun 01:01:00 PM 38.6986 -99.5396 288° West  Level Estimated
Sun 01:02:00 PM 38.7288 -99.6596 288° West  Level Estimated
Sun 01:03:00 PM 38.7589 -99.7797 288° West  Level Estimated
Sun 01:04:00 PM 38.7889 -99.8999 288° West  Level Estimated
Sun 01:05:00 PM 38.8188 -100.0203 288° West  Level Estimated
Sun 01:06:00 PM 38.8485 -100.1407 288° West  Level Estimated
Sun 01:07:00 PM 38.8781 -100.2612 288° West  Level Estimated
Sun 01:08:00 PM 38.9076 -100.3819 287° West  Level Estimated
Sun 01:09:00 PM 38.9370 -100.5026 287° West  Level Estimated
Sun 01:10:00 PM 38.9663 -100.6234 287° West  Level Estimated
Sun 01:11:00 PM 38.9954 -100.7444 287° West  Level Estimated
Sun 01:12:00 PM 39.0244 -100.8654 287° West  Level Estimated
Sun 01:13:00 PM 39.0532 -100.9865 287° West  Level Estimated
Sun 01:14:00 PM 39.0820 -101.1077 287° West  Level Estimated
Sun 01:15:00 PM 39.1106 -101.2291 287° West  Level Estimated
Sun 01:16:00 PM 39.1391 -101.3505 287° West  Level Estimated
Sun 01:17:00 PM 39.1675 -101.4720 287° West  Level Estimated
Sun 01:18:00 PM 39.1957 -101.5936 287° West  Level Estimated
Sun 01:19:00 PM 39.2238 -101.7153 287° West  Level Estimated
Sun 01:20:00 PM 39.2518 -101.8372 287° West  Level Estimated
Sun 01:21:00 PM 39.2797 -101.9591 286° West  Level Estimated
Sun 01:22:00 PM 39.3074 -102.0811 286° West  Level Estimated
Sun 01:23:00 PM 39.3350 -102.2032 286° West  Level Estimated
Sun 01:24:00 PM 39.3625 -102.3254 286° West  Level Estimated
Sun 01:25:00 PM 39.3898 -102.4477 286° West  Level Estimated
Sun 01:26:00 PM 39.4171 -102.5701 286° West  Level Estimated
Sun 01:27:00 PM 39.4441 -102.6925 286° West  Level Estimated
Sun 01:28:00 PM 39.4711 -102.8151 286° West  Level Estimated
Sun 01:29:00 PM 39.4980 -102.9378 286° West  Level Estimated
Sun 01:30:00 PM 39.5247 -103.0606 286° West  Level Estimated
Sun 01:31:00 PM 39.5513 -103.1834 286° West  Level Estimated
Sun 01:32:00 PM 39.5777 -103.3064 286° West  Level Estimated
Sun 01:33:00 PM 39.6040 -103.4294 286° West  Level Estimated
Sun 01:34:00 PM 39.6302 -103.5526 285° West  Level Estimated
Sun 01:35:00 PM 39.6563 -103.6758 285° West  Level Estimated
Sun 01:36:00 PM 39.6822 -103.7992 285° West  Level Estimated
Sun 01:37:00 PM 39.7080 -103.9226 285° West  Level Estimated
Sun 01:38:00 PM 39.7337 -104.0461 285° West  Level Estimated
Sun 01:39:00 PM 39.7592 -104.1697 285° West  Level Estimated
Sun 01:40:00 PM 39.7846 -104.2934 285° West  Level Estimated
Sun 01:41:00 PM 39.8099 -104.4172 285° West  Level Estimated
Sun 01:42:00 PM 39.8350 -104.5411 285° West  Level Estimated
Sun 01:43:00 PM 39.8600 -104.6650 285° West  Level Estimated
Sun 01:44:00 PM 39.8617 -104.6732 285° West  Level Estimated

Login

Don't have an account? Register now (free) for customized features, flight alerts, and more!